sensor_id;sensor_type;location;lat;lon;timestamp;temperature;humidity
14397;DHT22;50653;47.810;13.022;2023-02-13T00:00:10;3.10;99.90
14397;DHT22;50653;47.810;13.022;2023-02-13T00:02:36;3.10;99.90
14397;DHT22;50653;47.810;13.022;2023-02-13T00:05:01;3.20;99.90
14397;DHT22;50653;47.810;13.022;2023-02-13T00:07:27;3.20;99.90
14397;DHT22;50653;47.810;13.022;2023-02-13T00:09:53;3.20;99.90
14397;DHT22;50653;47.810;13.022;2023-02-13T00:12:18;3.20;99.90
14397;DHT22;50653;47.810;13.022;2023-02-13T00:14:44;3.20;99.90
14397;DHT22;50653;47.810;13.022;2023-02-13T00:17:09;3.20;99.90
14397;DHT22;50653;47.810;13.022;2023-02-13T00:19:35;3.20;99.90
14397;DHT22;50653;47.810;13.022;2023-02-13T00:22:01;3.10;99.90
14397;DHT22;50653;47.810;13.022;2023-02-13T00:24:26;3.10;99.90
14397;DHT22;50653;47.810;13.022;2023-02-13T00:26:52;3.00;99.90
14397;DHT22;50653;47.810;13.022;2023-02-13T00:29:17;2.90;99.90
14397;DHT22;50653;47.810;13.022;2023-02-13T00:31:43;2.90;99.90
14397;DHT22;50653;47.810;13.022;2023-02-13T00:34:09;2.90;99.90
14397;DHT22;50653;47.810;13.022;2023-02-13T00:36:34;2.80;99.90
14397;DHT22;50653;47.810;13.022;2023-02-13T00:39:00;2.80;99.90
14397;DHT22;50653;47.810;13.022;2023-02-13T00:41:26;2.80;99.90
14397;DHT22;50653;47.810;13.022;2023-02-13T00:43:51;2.70;99.90
14397;DHT22;50653;47.810;13.022;2023-02-13T00:46:17;2.70;99.90
14397;DHT22;50653;47.810;13.022;2023-02-13T00:48:43;2.60;99.90
14397;DHT22;50653;47.810;13.022;2023-02-13T00:51:09;2.60;99.90
14397;DHT22;50653;47.810;13.022;2023-02-13T00:53:36;2.60;99.90
14397;DHT22;50653;47.810;13.022;2023-02-13T00:56:02;2.60;99.90
14397;DHT22;50653;47.810;13.022;2023-02-13T00:58:29;2.50;99.90
14397;DHT22;50653;47.810;13.022;2023-02-13T01:00:56;2.50;99.90
14397;DHT22;50653;47.810;13.022;2023-02-13T01:03:22;2.40;99.90
14397;DHT22;50653;47.810;13.022;2023-02-13T01:05:48;2.40;99.90
14397;DHT22;50653;47.810;13.022;2023-02-13T01:08:15;2.40;99.90
14397;DHT22;50653;47.810;13.022;2023-02-13T01:10:42;2.40;99.90
14397;DHT22;50653;47.810;13.022;2023-02-13T01:13:08;2.40;99.90
14397;DHT22;50653;47.810;13.022;2023-02-13T01:15:34;2.30;99.90
14397;DHT22;50653;47.810;13.022;2023-02-13T01:18:00;2.30;99.90
14397;DHT22;50653;47.810;13.022;2023-02-13T01:20:27;2.40;99.90
14397;DHT22;50653;47.810;13.022;2023-02-13T01:22:54;2.30;99.90
14397;DHT22;50653;47.810;13.022;2023-02-13T01:25:20;2.30;99.90
14397;DHT22;50653;47.810;13.022;2023-02-13T01:27:45;2.20;99.90
14397;DHT22;50653;47.810;13.022;2023-02-13T01:30:13;2.20;99.90
14397;DHT22;50653;47.810;13.022;2023-02-13T01:32:41;2.20;99.90
14397;DHT22;50653;47.810;13.022;2023-02-13T01:35:07;2.20;99.90
14397;DHT22;50653;47.810;13.022;2023-02-13T01:37:33;2.20;99.90
14397;DHT22;50653;47.810;13.022;2023-02-13T01:40:00;2.10;99.90
14397;DHT22;50653;47.810;13.022;2023-02-13T01:42:28;2.10;99.90
14397;DHT22;50653;47.810;13.022;2023-02-13T01:44:56;2.10;99.90
14397;DHT22;50653;47.810;13.022;2023-02-13T01:50:21;2.10;99.90
14397;DHT22;50653;47.810;13.022;2023-02-13T01:53:05;2.20;99.90
14397;DHT22;50653;47.810;13.022;2023-02-13T01:55:34;2.10;99.90
14397;DHT22;50653;47.810;13.022;2023-02-13T01:58:08;2.20;99.90
14397;DHT22;50653;47.810;13.022;2023-02-13T02:00:37;2.20;99.90
14397;DHT22;50653;47.810;13.022;2023-02-13T02:03:13;2.20;99.90
14397;DHT22;50653;47.810;13.022;2023-02-13T02:05:42;2.10;99.90
14397;DHT22;50653;47.810;13.022;2023-02-13T02:08:10;2.10;99.90
14397;DHT22;50653;47.810;13.022;2023-02-13T02:10:38;1.80;99.90
14397;DHT22;50653;47.810;13.022;2023-02-13T02:13:08;1.90;99.90
14397;DHT22;50653;47.810;13.022;2023-02-13T02:15:38;1.90;99.90
14397;DHT22;50653;47.810;13.022;2023-02-13T02:18:19;2.10;99.90
14397;DHT22;50653;47.810;13.022;2023-02-13T02:27:10;1.90;99.90
14397;DHT22;50653;47.810;13.022;2023-02-13T02:29:59;2.00;99.90
14397;DHT22;50653;47.810;13.022;2023-02-13T02:35:42;2.00;99.90
14397;DHT22;50653;47.810;13.022;2023-02-13T02:49:57;2.20;99.90
14397;DHT22;50653;47.810;13.022;2023-02-13T02:55:25;2.20;99.90
14397;DHT22;50653;47.810;13.022;2023-02-13T03:00:58;2.20;99.90
14397;DHT22;50653;47.810;13.022;2023-02-13T03:03:45;2.30;99.90
14397;DHT22;50653;47.810;13.022;2023-02-13T03:06:36;2.20;99.90
14397;DHT22;50653;47.810;13.022;2023-02-13T03:09:05;2.20;99.90
14397;DHT22;50653;47.810;13.022;2023-02-13T03:11:54;2.20;99.90
14397;DHT22;50653;47.810;13.022;2023-02-13T03:14:40;2.30;99.90
14397;DHT22;50653;47.810;13.022;2023-02-13T03:17:13;2.20;99.90
14397;DHT22;50653;47.810;13.022;2023-02-13T03:20:10;2.30;99.90
14397;DHT22;50653;47.810;13.022;2023-02-13T03:23:06;2.30;99.90
14397;DHT22;50653;47.810;13.022;2023-02-13T03:31:35;2.40;99.90
14397;DHT22;50653;47.810;13.022;2023-02-13T03:34:12;2.30;99.90
14397;DHT22;50653;47.810;13.022;2023-02-13T03:42:35;2.40;99.90
14397;DHT22;50653;47.810;13.022;2023-02-13T03:45:10;2.30;99.90
14397;DHT22;50653;47.810;13.022;2023-02-13T03:47:57;2.30;99.90
14397;DHT22;50653;47.810;13.022;2023-02-13T03:50:26;2.30;99.90
14397;DHT22;50653;47.810;13.022;2023-02-13T03:53:05;2.30;99.90
14397;DHT22;50653;47.810;13.022;2023-02-13T03:55:34;2.20;99.90
14397;DHT22;50653;47.810;13.022;2023-02-13T03:58:24;2.20;99.90
14397;DHT22;50653;47.810;13.022;2023-02-13T04:01:12;2.30;99.90
14397;DHT22;50653;47.810;13.022;2023-02-13T04:04:00;2.20;99.90
14397;DHT22;50653;47.810;13.022;2023-02-13T04:06:33;2.30;99.90
14397;DHT22;50653;47.810;13.022;2023-02-13T04:08:59;2.30;99.90
14397;DHT22;50653;47.810;13.022;2023-02-13T04:11:31;2.20;99.90
14397;DHT22;50653;47.810;13.022;2023-02-13T04:14:00;2.30;99.90
14397;DHT22;50653;47.810;13.022;2023-02-13T04:16:39;2.30;99.90
14397;DHT22;50653;47.810;13.022;2023-02-13T04:19:07;2.20;99.90
14397;DHT22;50653;47.810;13.022;2023-02-13T04:21:34;2.10;99.90
14397;DHT22;50653;47.810;13.022;2023-02-13T04:24:00;2.20;99.90
14397;DHT22;50653;47.810;13.022;2023-02-13T04:26:36;2.30;99.90
14397;DHT22;50653;47.810;13.022;2023-02-13T04:29:03;2.40;99.90
14397;DHT22;50653;47.810;13.022;2023-02-13T04:31:28;2.30;99.90
14397;DHT22;50653;47.810;13.022;2023-02-13T04:33:54;2.30;99.90
14397;DHT22;50653;47.810;13.022;2023-02-13T04:36:20;2.20;99.90
14397;DHT22;50653;47.810;13.022;2023-02-13T04:38:45;2.10;99.90
14397;DHT22;50653;47.810;13.022;2023-02-13T04:41:11;2.10;99.90
14397;DHT22;50653;47.810;13.022;2023-02-13T04:43:37;2.00;99.90
14397;DHT22;50653;47.810;13.022;2023-02-13T04:46:03;2.00;99.90
14397;DHT22;50653;47.810;13.022;2023-02-13T04:48:29;2.10;99.90
14397;DHT22;50653;47.810;13.022;2023-02-13T04:50:54;2.00;99.90
14397;DHT22;50653;47.810;13.022;2023-02-13T04:53:20;1.90;99.90
14397;DHT22;50653;47.810;13.022;2023-02-13T04:55:45;1.90;99.90
14397;DHT22;50653;47.810;13.022;2023-02-13T04:58:11;1.90;99.90
14397;DHT22;50653;47.810;13.022;2023-02-13T05:00:37;1.90;99.90
14397;DHT22;50653;47.810;13.022;2023-02-13T05:03:07;1.90;99.90
14397;DHT22;50653;47.810;13.022;2023-02-13T05:05:34;1.80;99.90
14397;DHT22;50653;47.810;13.022;2023-02-13T05:08:00;1.90;99.90
14397;DHT22;50653;47.810;13.022;2023-02-13T05:10:26;1.80;99.90
14397;DHT22;50653;47.810;13.022;2023-02-13T05:12:52;1.80;99.90
14397;DHT22;50653;47.810;13.022;2023-02-13T05:15:18;1.60;99.90
14397;DHT22;50653;47.810;13.022;2023-02-13T05:17:44;1.70;99.90
14397;DHT22;50653;47.810;13.022;2023-02-13T05:20:11;1.70;99.90
14397;DHT22;50653;47.810;13.022;2023-02-13T05:22:38;1.60;99.90
14397;DHT22;50653;47.810;13.022;2023-02-13T05:25:26;1.50;99.90
14397;DHT22;50653;47.810;13.022;2023-02-13T05:27:51;1.70;99.90
14397;DHT22;50653;47.810;13.022;2023-02-13T05:30:17;1.70;99.90
14397;DHT22;50653;47.810;13.022;2023-02-13T05:32:43;1.70;99.90
14397;DHT22;50653;47.810;13.022;2023-02-13T05:35:09;1.60;99.90
14397;DHT22;50653;47.810;13.022;2023-02-13T05:37:34;1.60;99.90
14397;DHT22;50653;47.810;13.022;2023-02-13T05:40:00;1.50;99.90
14397;DHT22;50653;47.810;13.022;2023-02-13T05:42:25;1.50;99.90
14397;DHT22;50653;47.810;13.022;2023-02-13T05:44:51;1.50;99.90
14397;DHT22;50653;47.810;13.022;2023-02-13T05:47:17;1.60;99.90
14397;DHT22;50653;47.810;13.022;2023-02-13T05:49:42;1.70;99.90
14397;DHT22;50653;47.810;13.022;2023-02-13T05:52:08;1.60;99.90
14397;DHT22;50653;47.810;13.022;2023-02-13T05:54:33;1.50;99.90
14397;DHT22;50653;47.810;13.022;2023-02-13T05:56:59;1.70;99.90
14397;DHT22;50653;47.810;13.022;2023-02-13T05:59:24;1.70;99.90
14397;DHT22;50653;47.810;13.022;2023-02-13T06:01:50;1.70;99.90
14397;DHT22;50653;47.810;13.022;2023-02-13T06:04:16;1.70;99.90
14397;DHT22;50653;47.810;13.022;2023-02-13T06:06:41;1.70;99.90
14397;DHT22;50653;47.810;13.022;2023-02-13T06:09:07;1.80;99.90
14397;DHT22;50653;47.810;13.022;2023-02-13T06:11:33;1.60;99.90
14397;DHT22;50653;47.810;13.022;2023-02-13T06:13:58;1.50;99.90
14397;DHT22;50653;47.810;13.022;2023-02-13T06:16:24;1.50;99.90
14397;DHT22;50653;47.810;13.022;2023-02-13T06:18:50;1.60;99.90
14397;DHT22;50653;47.810;13.022;2023-02-13T06:21:15;1.50;99.90
14397;DHT22;50653;47.810;13.022;2023-02-13T06:23:41;1.40;99.90
14397;DHT22;50653;47.810;13.022;2023-02-13T06:26:08;1.60;99.90
14397;DHT22;50653;47.810;13.022;2023-02-13T06:28:35;1.50;99.90
14397;DHT22;50653;47.810;13.022;2023-02-13T06:31:01;1.50;99.90
14397;DHT22;50653;47.810;13.022;2023-02-13T06:33:26;1.60;99.90
14397;DHT22;50653;47.810;13.022;2023-02-13T06:35:52;1.40;99.90
14397;DHT22;50653;47.810;13.022;2023-02-13T06:38:18;1.50;99.90
14397;DHT22;50653;47.810;13.022;2023-02-13T06:40:45;1.50;99.90
14397;DHT22;50653;47.810;13.022;2023-02-13T06:43:11;1.50;99.90
14397;DHT22;50653;47.810;13.022;2023-02-13T06:45:37;1.50;99.90
14397;DHT22;50653;47.810;13.022;2023-02-13T06:48:02;1.50;99.90
14397;DHT22;50653;47.810;13.022;2023-02-13T06:50:28;1.50;99.90
14397;DHT22;50653;47.810;13.022;2023-02-13T06:52:53;1.50;99.90
14397;DHT22;50653;47.810;13.022;2023-02-13T06:55:20;1.60;99.90
14397;DHT22;50653;47.810;13.022;2023-02-13T06:57:45;1.70;99.90
14397;DHT22;50653;47.810;13.022;2023-02-13T07:00:13;1.60;99.90
14397;DHT22;50653;47.810;13.022;2023-02-13T07:02:43;1.40;99.90
14397;DHT22;50653;47.810;13.022;2023-02-13T07:05:10;1.40;99.90
14397;DHT22;50653;47.810;13.022;2023-02-13T07:07:37;1.40;99.90
14397;DHT22;50653;47.810;13.022;2023-02-13T07:10:05;1.50;99.90
14397;DHT22;50653;47.810;13.022;2023-02-13T07:12:35;1.50;99.90
14397;DHT22;50653;47.810;13.022;2023-02-13T07:15:02;1.50;99.90
14397;DHT22;50653;47.810;13.022;2023-02-13T07:17:28;1.60;99.90
14397;DHT22;50653;47.810;13.022;2023-02-13T07:19:53;1.50;99.90
14397;DHT22;50653;47.810;13.022;2023-02-13T07:22:19;1.40;99.90
14397;DHT22;50653;47.810;13.022;2023-02-13T07:24:44;1.50;99.90
14397;DHT22;50653;47.810;13.022;2023-02-13T07:27:10;1.60;99.90
14397;DHT22;50653;47.810;13.022;2023-02-13T07:29:36;1.60;99.90
14397;DHT22;50653;47.810;13.022;2023-02-13T07:32:01;1.40;99.90
14397;DHT22;50653;47.810;13.022;2023-02-13T07:34:27;1.50;99.90
14397;DHT22;50653;47.810;13.022;2023-02-13T07:36:53;1.50;99.90
14397;DHT22;50653;47.810;13.022;2023-02-13T07:39:18;1.60;99.90
14397;DHT22;50653;47.810;13.022;2023-02-13T07:41:44;1.60;99.90
14397;DHT22;50653;47.810;13.022;2023-02-13T07:44:10;1.70;99.90
14397;DHT22;50653;47.810;13.022;2023-02-13T07:46:35;1.60;99.90
14397;DHT22;50653;47.810;13.022;2023-02-13T07:49:01;1.80;99.90
14397;DHT22;50653;47.810;13.022;2023-02-13T07:51:27;1.70;99.90
14397;DHT22;50653;47.810;13.022;2023-02-13T07:53:53;1.60;99.90
14397;DHT22;50653;47.810;13.022;2023-02-13T07:56:19;1.60;99.90
14397;DHT22;50653;47.810;13.022;2023-02-13T07:58:45;1.70;99.90
14397;DHT22;50653;47.810;13.022;2023-02-13T08:01:15;1.70;99.90
14397;DHT22;50653;47.810;13.022;2023-02-13T08:03:41;1.60;99.90
14397;DHT22;50653;47.810;13.022;2023-02-13T08:06:08;1.50;99.90
14397;DHT22;50653;47.810;13.022;2023-02-13T08:08:34;1.70;99.90
14397;DHT22;50653;47.810;13.022;2023-02-13T08:11:22;1.60;99.90
14397;DHT22;50653;47.810;13.022;2023-02-13T08:14:07;1.50;99.90
14397;DHT22;50653;47.810;13.022;2023-02-13T08:16:33;1.60;99.90
14397;DHT22;50653;47.810;13.022;2023-02-13T08:18:58;1.60;99.90
14397;DHT22;50653;47.810;13.022;2023-02-13T08:21:24;1.60;99.90
14397;DHT22;50653;47.810;13.022;2023-02-13T08:23:50;1.70;99.90
14397;DHT22;50653;47.810;13.022;2023-02-13T08:26:16;1.60;99.90
14397;DHT22;50653;47.810;13.022;2023-02-13T08:28:42;1.70;99.90
14397;DHT22;50653;47.810;13.022;2023-02-13T08:31:10;1.70;99.90
14397;DHT22;50653;47.810;13.022;2023-02-13T08:33:35;1.80;99.90
14397;DHT22;50653;47.810;13.022;2023-02-13T08:36:04;1.70;99.90
14397;DHT22;50653;47.810;13.022;2023-02-13T08:38:31;1.70;99.90
14397;DHT22;50653;47.810;13.022;2023-02-13T08:40:57;1.70;99.90
14397;DHT22;50653;47.810;13.022;2023-02-13T08:43:22;1.70;99.90
14397;DHT22;50653;47.810;13.022;2023-02-13T08:45:48;1.50;99.90
14397;DHT22;50653;47.810;13.022;2023-02-13T08:48:14;1.30;99.90
14397;DHT22;50653;47.810;13.022;2023-02-13T08:50:39;1.40;99.90
14397;DHT22;50653;47.810;13.022;2023-02-13T08:53:05;1.40;99.90
14397;DHT22;50653;47.810;13.022;2023-02-13T08:55:31;1.50;99.90
14397;DHT22;50653;47.810;13.022;2023-02-13T08:58:03;1.60;99.90
14397;DHT22;50653;47.810;13.022;2023-02-13T09:00:30;1.40;99.90
14397;DHT22;50653;47.810;13.022;2023-02-13T09:03:00;1.50;99.90
14397;DHT22;50653;47.810;13.022;2023-02-13T09:05:26;1.60;99.90
14397;DHT22;50653;47.810;13.022;2023-02-13T09:07:52;1.80;99.90
14397;DHT22;50653;47.810;13.022;2023-02-13T09:10:17;1.80;99.90
14397;DHT22;50653;47.810;13.022;2023-02-13T09:12:43;1.90;99.90
14397;DHT22;50653;47.810;13.022;2023-02-13T09:15:09;1.70;99.90
14397;DHT22;50653;47.810;13.022;2023-02-13T09:17:35;1.30;99.90
14397;DHT22;50653;47.810;13.022;2023-02-13T09:20:00;1.50;99.90
14397;DHT22;50653;47.810;13.022;2023-02-13T09:22:26;1.60;99.90
14397;DHT22;50653;47.810;13.022;2023-02-13T09:24:51;1.50;99.90
14397;DHT22;50653;47.810;13.022;2023-02-13T09:27:17;1.60;99.90
14397;DHT22;50653;47.810;13.022;2023-02-13T09:29:42;1.70;99.90
14397;DHT22;50653;47.810;13.022;2023-02-13T09:32:08;1.80;99.90
14397;DHT22;50653;47.810;13.022;2023-02-13T09:34:34;1.90;99.90
14397;DHT22;50653;47.810;13.022;2023-02-13T09:36:59;1.90;99.90
14397;DHT22;50653;47.810;13.022;2023-02-13T09:39:25;2.00;99.90
14397;DHT22;50653;47.810;13.022;2023-02-13T09:41:52;2.10;99.90
14397;DHT22;50653;47.810;13.022;2023-02-13T09:47:03;2.20;99.90
14397;DHT22;50653;47.810;13.022;2023-02-13T09:49:34;2.20;99.90
14397;DHT22;50653;47.810;13.022;2023-02-13T09:52:01;2.30;99.90
14397;DHT22;50653;47.810;13.022;2023-02-13T09:54:27;2.40;99.90
14397;DHT22;50653;47.810;13.022;2023-02-13T09:57:00;2.40;99.90
14397;DHT22;50653;47.810;13.022;2023-02-13T10:02:01;2.50;99.90
14397;DHT22;50653;47.810;13.022;2023-02-13T10:10:22;2.50;99.90
14397;DHT22;50653;47.810;13.022;2023-02-13T10:15:43;2.10;99.90
14397;DHT22;50653;47.810;13.022;2023-02-13T10:18:16;2.20;99.90
14397;DHT22;50653;47.810;13.022;2023-02-13T10:23:29;2.50;99.90
14397;DHT22;50653;47.810;13.022;2023-02-13T10:26:04;2.60;99.90
14397;DHT22;50653;47.810;13.022;2023-02-13T10:28:44;2.60;99.90
14397;DHT22;50653;47.810;13.022;2023-02-13T10:31:13;2.60;99.90
14397;DHT22;50653;47.810;13.022;2023-02-13T10:33:49;2.60;99.90
14397;DHT22;50653;47.810;13.022;2023-02-13T10:36:22;2.60;99.90
14397;DHT22;50653;47.810;13.022;2023-02-13T10:39:12;2.40;99.90
14397;DHT22;50653;47.810;13.022;2023-02-13T10:41:53;2.40;99.90
14397;DHT22;50653;47.810;13.022;2023-02-13T10:53:13;2.70;99.90
14397;DHT22;50653;47.810;13.022;2023-02-13T10:58:46;2.80;99.90
14397;DHT22;50653;47.810;13.022;2023-02-13T11:04:10;2.90;99.90
14397;DHT22;50653;47.810;13.022;2023-02-13T11:06:40;2.70;99.90
14397;DHT22;50653;47.810;13.022;2023-02-13T11:09:07;2.60;99.90
14397;DHT22;50653;47.810;13.022;2023-02-13T11:14:13;2.80;99.90
14397;DHT22;50653;47.810;13.022;2023-02-13T11:16:47;2.90;99.90
14397;DHT22;50653;47.810;13.022;2023-02-13T11:19:55;3.00;99.90
14397;DHT22;50653;47.810;13.022;2023-02-13T11:22:38;2.80;99.90
14397;DHT22;50653;47.810;13.022;2023-02-13T11:25:25;2.40;99.90
14397;DHT22;50653;47.810;13.022;2023-02-13T11:28:16;2.70;99.90
14397;DHT22;50653;47.810;13.022;2023-02-13T11:30:44;2.80;99.90
14397;DHT22;50653;47.810;13.022;2023-02-13T11:35:43;3.00;99.90
14397;DHT22;50653;47.810;13.022;2023-02-13T11:40:42;2.90;99.90
14397;DHT22;50653;47.810;13.022;2023-02-13T11:43:23;2.80;99.90
14397;DHT22;50653;47.810;13.022;2023-02-13T11:48:27;3.10;99.90
14397;DHT22;50653;47.810;13.022;2023-02-13T11:50:54;3.00;99.90
14397;DHT22;50653;47.810;13.022;2023-02-13T11:53:30;3.10;99.90
14397;DHT22;50653;47.810;13.022;2023-02-13T11:56:10;3.10;99.90
14397;DHT22;50653;47.810;13.022;2023-02-13T11:58:36;3.10;99.90
14397;DHT22;50653;47.810;13.022;2023-02-13T12:01:22;3.00;99.90
14397;DHT22;50653;47.810;13.022;2023-02-13T12:06:36;3.00;99.90
14397;DHT22;50653;47.810;13.022;2023-02-13T12:09:13;3.00;99.90
14397;DHT22;50653;47.810;13.022;2023-02-13T12:11:44;3.10;99.90
14397;DHT22;50653;47.810;13.022;2023-02-13T12:14:15;2.90;99.90
14397;DHT22;50653;47.810;13.022;2023-02-13T12:16:46;3.00;99.90
14397;DHT22;50653;47.810;13.022;2023-02-13T12:19:28;3.10;99.90
14397;DHT22;50653;47.810;13.022;2023-02-13T12:35:35;3.20;99.90
14397;DHT22;50653;47.810;13.022;2023-02-13T12:41:22;3.20;99.90
14397;DHT22;50653;47.810;13.022;2023-02-13T12:50:01;3.40;99.90
14397;DHT22;50653;47.810;13.022;2023-02-13T13:07:19;3.50;99.90
14397;DHT22;50653;47.810;13.022;2023-02-13T13:10:16;3.70;99.90
14397;DHT22;50653;47.810;13.022;2023-02-13T13:13:09;3.80;99.90
14397;DHT22;50653;47.810;13.022;2023-02-13T13:18:44;3.80;99.90
14397;DHT22;50653;47.810;13.022;2023-02-13T13:21:21;3.90;99.90
14397;DHT22;50653;47.810;13.022;2023-02-13T13:24:06;4.00;99.90
14397;DHT22;50653;47.810;13.022;2023-02-13T13:26:46;4.00;99.90
14397;DHT22;50653;47.810;13.022;2023-02-13T13:29:43;4.00;99.90
14397;DHT22;50653;47.810;13.022;2023-02-13T13:32:16;4.10;99.90
14397;DHT22;50653;47.810;13.022;2023-02-13T13:34:44;4.20;99.90
14397;DHT22;50653;47.810;13.022;2023-02-13T13:46:02;4.20;99.90
14397;DHT22;50653;47.810;13.022;2023-02-13T13:48:54;4.30;99.90
14397;DHT22;50653;47.810;13.022;2023-02-13T13:51:23;4.30;99.90
14397;DHT22;50653;47.810;13.022;2023-02-13T13:54:17;4.40;99.90
14397;DHT22;50653;47.810;13.022;2023-02-13T13:59:54;3.90;99.90
14397;DHT22;50653;47.810;13.022;2023-02-13T14:05:14;4.30;99.90
14397;DHT22;50653;47.810;13.022;2023-02-13T14:07:41;4.10;99.90
14397;DHT22;50653;47.810;13.022;2023-02-13T14:10:57;4.20;99.90
14397;DHT22;50653;47.810;13.022;2023-02-13T14:13:06;4.40;99.90
14397;DHT22;50653;47.810;13.022;2023-02-13T14:26:11;4.50;99.90
14397;DHT22;50653;47.810;13.022;2023-02-13T14:29:03;4.70;99.90
14397;DHT22;50653;47.810;13.022;2023-02-13T14:36:41;4.60;99.90
14397;DHT22;50653;47.810;13.022;2023-02-13T14:39:30;4.20;99.90
14397;DHT22;50653;47.810;13.022;2023-02-13T14:44:47;3.90;99.90
14397;DHT22;50653;47.810;13.022;2023-02-13T14:47:20;3.70;99.90
14397;DHT22;50653;47.810;13.022;2023-02-13T14:49:48;3.60;99.90
14397;DHT22;50653;47.810;13.022;2023-02-13T14:52:18;3.60;99.90
14397;DHT22;50653;47.810;13.022;2023-02-13T14:54:54;3.80;99.90
14397;DHT22;50653;47.810;13.022;2023-02-13T14:57:27;3.90;99.90
14397;DHT22;50653;47.810;13.022;2023-02-13T14:59:57;3.90;99.90
14397;DHT22;50653;47.810;13.022;2023-02-13T15:02:29;3.90;99.90
14397;DHT22;50653;47.810;13.022;2023-02-13T15:05:09;3.90;99.90
14397;DHT22;50653;47.810;13.022;2023-02-13T15:07:44;3.90;99.90
14397;DHT22;50653;47.810;13.022;2023-02-13T15:10:34;4.00;99.90
14397;DHT22;50653;47.810;13.022;2023-02-13T15:13:01;4.20;99.90
14397;DHT22;50653;47.810;13.022;2023-02-13T15:15:30;4.40;99.90
14397;DHT22;50653;47.810;13.022;2023-02-13T15:18:00;4.50;99.90
14397;DHT22;50653;47.810;13.022;2023-02-13T15:20:32;4.60;99.90
14397;DHT22;50653;47.810;13.022;2023-02-13T15:22:58;4.60;99.90
14397;DHT22;50653;47.810;13.022;2023-02-13T15:27:54;4.40;99.90
14397;DHT22;50653;47.810;13.022;2023-02-13T15:30:26;4.40;99.90
14397;DHT22;50653;47.810;13.022;2023-02-13T15:32:59;4.20;99.90
14397;DHT22;50653;47.810;13.022;2023-02-13T15:35:34;4.20;99.90
14397;DHT22;50653;47.810;13.022;2023-02-13T15:38:33;4.00;99.90
14397;DHT22;50653;47.810;13.022;2023-02-13T15:41:21;4.00;99.90
14397;DHT22;50653;47.810;13.022;2023-02-13T15:43:48;4.10;99.90
14397;DHT22;50653;47.810;13.022;2023-02-13T15:46:28;4.00;99.90
14397;DHT22;50653;47.810;13.022;2023-02-13T15:48:57;3.90;99.90
14397;DHT22;50653;47.810;13.022;2023-02-13T15:51:28;3.80;99.90
14397;DHT22;50653;47.810;13.022;2023-02-13T15:54:00;3.70;99.90
14397;DHT22;50653;47.810;13.022;2023-02-13T15:56:26;3.70;99.90
14397;DHT22;50653;47.810;13.022;2023-02-13T15:58:53;3.80;99.90
14397;DHT22;50653;47.810;13.022;2023-02-13T16:01:20;3.60;99.90
14397;DHT22;50653;47.810;13.022;2023-02-13T16:03:50;3.60;99.90
14397;DHT22;50653;47.810;13.022;2023-02-13T16:06:20;3.60;99.90
14397;DHT22;50653;47.810;13.022;2023-02-13T16:08:55;3.50;99.90
14397;DHT22;50653;47.810;13.022;2023-02-13T16:11:31;3.30;99.90
14397;DHT22;50653;47.810;13.022;2023-02-13T16:14:15;3.20;99.90
14397;DHT22;50653;47.810;13.022;2023-02-13T16:17:04;3.20;99.90
14397;DHT22;50653;47.810;13.022;2023-02-13T16:22:30;3.30;99.90
14397;DHT22;50653;47.810;13.022;2023-02-13T16:25:23;3.20;99.90
14397;DHT22;50653;47.810;13.022;2023-02-13T16:27:54;3.20;99.90
14397;DHT22;50653;47.810;13.022;2023-02-13T16:30:42;3.30;99.90
14397;DHT22;50653;47.810;13.022;2023-02-13T16:43:50;3.10;99.90
14397;DHT22;50653;47.810;13.022;2023-02-13T16:46:36;3.10;99.90
14397;DHT22;50653;47.810;13.022;2023-02-13T16:54:33;3.10;99.90
14397;DHT22;50653;47.810;13.022;2023-02-13T17:02:38;3.20;99.90
14397;DHT22;50653;47.810;13.022;2023-02-13T17:07:36;3.20;99.90
14397;DHT22;50653;47.810;13.022;2023-02-13T17:10:07;3.20;99.90
14397;DHT22;50653;47.810;13.022;2023-02-13T17:12:37;3.30;99.90
14397;DHT22;50653;47.810;13.022;2023-02-13T17:15:06;3.20;99.90
14397;DHT22;50653;47.810;13.022;2023-02-13T17:17:34;3.20;99.90
14397;DHT22;50653;47.810;13.022;2023-02-13T17:19:59;3.10;99.90
14397;DHT22;50653;47.810;13.022;2023-02-13T17:24:56;3.30;99.90
14397;DHT22;50653;47.810;13.022;2023-02-13T17:27:22;3.30;99.90
14397;DHT22;50653;47.810;13.022;2023-02-13T17:29:47;3.30;99.90
14397;DHT22;50653;47.810;13.022;2023-02-13T17:32:17;3.30;99.90
14397;DHT22;50653;47.810;13.022;2023-02-13T17:34:44;3.30;99.90
14397;DHT22;50653;47.810;13.022;2023-02-13T17:37:26;3.30;99.90
14397;DHT22;50653;47.810;13.022;2023-02-13T17:39:53;3.30;99.90
14397;DHT22;50653;47.810;13.022;2023-02-13T17:42:24;3.40;99.90
14397;DHT22;50653;47.810;13.022;2023-02-13T17:44:54;3.40;99.90
14397;DHT22;50653;47.810;13.022;2023-02-13T17:47:20;3.40;99.90
14397;DHT22;50653;47.810;13.022;2023-02-13T17:49:46;3.40;99.90
14397;DHT22;50653;47.810;13.022;2023-02-13T17:52:18;3.30;99.90
14397;DHT22;50653;47.810;13.022;2023-02-13T17:54:44;3.30;99.90
14397;DHT22;50653;47.810;13.022;2023-02-13T17:57:14;3.40;99.90
14397;DHT22;50653;47.810;13.022;2023-02-13T17:59:41;3.40;99.90
14397;DHT22;50653;47.810;13.022;2023-02-13T18:02:18;3.40;99.90
14397;DHT22;50653;47.810;13.022;2023-02-13T18:04:45;3.30;99.90
14397;DHT22;50653;47.810;13.022;2023-02-13T18:07:13;3.30;99.90
14397;DHT22;50653;47.810;13.022;2023-02-13T18:09:39;3.40;99.90
14397;DHT22;50653;47.810;13.022;2023-02-13T18:12:08;3.40;99.90
14397;DHT22;50653;47.810;13.022;2023-02-13T18:14:35;3.40;99.90
14397;DHT22;50653;47.810;13.022;2023-02-13T18:17:01;3.20;99.90
14397;DHT22;50653;47.810;13.022;2023-02-13T18:19:27;3.30;99.90
14397;DHT22;50653;47.810;13.022;2023-02-13T18:21:53;3.00;99.90
14397;DHT22;50653;47.810;13.022;2023-02-13T18:24:19;3.10;99.90
14397;DHT22;50653;47.810;13.022;2023-02-13T18:26:44;3.00;99.90
14397;DHT22;50653;47.810;13.022;2023-02-13T18:29:10;3.10;99.90
14397;DHT22;50653;47.810;13.022;2023-02-13T18:31:36;3.20;99.90
14397;DHT22;50653;47.810;13.022;2023-02-13T18:34:02;3.20;99.90
14397;DHT22;50653;47.810;13.022;2023-02-13T18:36:28;3.20;99.90
14397;DHT22;50653;47.810;13.022;2023-02-13T18:38:53;3.30;99.90
14397;DHT22;50653;47.810;13.022;2023-02-13T18:41:19;3.40;99.90
14397;DHT22;50653;47.810;13.022;2023-02-13T18:43:46;3.40;99.90
14397;DHT22;50653;47.810;13.022;2023-02-13T18:46:11;3.30;99.90
14397;DHT22;50653;47.810;13.022;2023-02-13T18:48:37;3.30;99.90
14397;DHT22;50653;47.810;13.022;2023-02-13T18:51:03;3.30;99.90
14397;DHT22;50653;47.810;13.022;2023-02-13T18:53:29;3.30;99.90
14397;DHT22;50653;47.810;13.022;2023-02-13T18:56:02;3.20;99.90
14397;DHT22;50653;47.810;13.022;2023-02-13T18:58:28;3.30;99.90
14397;DHT22;50653;47.810;13.022;2023-02-13T19:00:54;3.20;99.90